createdAt,value
2023-03-01T08:41:55.940Z,49.00
2023-03-01T10:10:56.300Z,36.80
2023-03-01T13:33:36.369Z,29.73
2023-03-01T16:53:37.301Z,32.03
2023-03-01T17:42:03.479Z,32.45
2023-03-01T17:44:34.684Z,36.47
2023-03-01T17:47:03.656Z,35.45
2023-03-01T17:49:34.615Z,31.63
2023-03-01T17:52:22.865Z,31.48
2023-03-01T17:57:52.693Z,38.35
2023-03-01T18:00:20.277Z,36.25
2023-03-01T18:02:49.641Z,34.70
2023-03-01T18:05:17.370Z,35.90
2023-03-01T19:34:50.504Z,48.15
2023-03-01T19:45:33.272Z,41.53
2023-03-01T19:56:02.477Z,41.90
2023-03-01T19:58:29.910Z,40.95
2023-03-01T20:01:00.813Z,44.08
2023-03-01T20:03:29.231Z,43.08
2023-03-01T20:05:56.725Z,35.83
2023-03-01T20:08:27.884Z,43.22
2023-03-01T20:11:01.002Z,41.15
2023-03-01T20:15:57.464Z,43.70
2023-03-01T20:18:24.260Z,38.20
2023-03-01T20:20:51.113Z,45.88
2023-03-01T20:23:19.211Z,43.60
2023-03-01T20:25:46.576Z,41.70
2023-03-01T20:28:13.972Z,42.03
2023-03-01T20:30:40.868Z,42.83
2023-03-01T20:33:07.939Z,32.17
2023-03-01T20:35:36.203Z,38.25
2023-03-01T20:38:04.387Z,38.72
2023-03-01T20:40:31.837Z,38.10
2023-03-01T20:42:59.763Z,31.42
2023-03-01T20:45:28.159Z,36.10
2023-03-01T20:47:56.601Z,37.80
2023-03-01T20:50:23.409Z,36.30
2023-03-01T20:52:50.197Z,35.30
2023-03-01T20:55:17.083Z,34.33
2023-03-01T20:57:43.996Z,42.05
2023-03-01T21:00:11.702Z,35.28
2023-03-01T21:02:39.794Z,38.20
2023-03-01T21:05:06.967Z,37.20
2023-03-01T21:07:33.763Z,36.33
2023-03-01T21:10:00.965Z,34.47
2023-03-01T21:12:31.157Z,35.85
2023-03-01T21:14:58.821Z,35.10
2023-03-01T21:17:27.098Z,41.00
2023-03-01T21:19:54.383Z,49.45
2023-03-01T21:22:35.150Z,45.15
2023-03-01T21:25:03.574Z,39.35
2023-03-01T21:27:31.138Z,38.97
2023-03-01T21:29:59.035Z,45.15
2023-03-01T21:32:25.774Z,38.35
2023-03-01T21:34:52.594Z,42.70
2023-03-01T21:37:24.744Z,43.22
2023-03-01T21:39:51.431Z,52.80
2023-03-01T21:42:18.786Z,47.17
2023-03-01T21:44:45.974Z,49.03
2023-03-01T21:47:12.733Z,47.60
2023-03-01T21:49:39.931Z,41.50
2023-03-01T21:52:06.737Z,43.40
2023-03-01T21:54:34.237Z,44.38
2023-03-01T21:57:02.276Z,40.10
2023-03-01T21:59:31.033Z,42.55
2023-03-01T22:01:58.372Z,46.35
2023-03-01T22:04:25.828Z,41.45
2023-03-01T22:06:54.317Z,40.05
2023-03-01T22:09:24.375Z,39.85
2023-03-01T22:11:54.465Z,47.15
2023-03-01T22:14:21.325Z,50.30
2023-03-01T22:16:48.208Z,52.80
2023-03-01T22:19:15.624Z,53.75
2023-03-01T22:21:43.857Z,53.13
2023-03-01T22:24:11.503Z,47.80
2023-03-01T22:26:39.848Z,48.00
2023-03-01T22:29:08.757Z,53.55
2023-03-01T22:31:35.762Z,54.20
2023-03-01T22:34:02.629Z,61.78
2023-03-01T22:36:29.935Z,53.10
2023-03-01T22:39:00.485Z,56.17
2023-03-01T22:41:32.154Z,62.60
2023-03-01T22:43:59.094Z,64.45
2023-03-01T22:46:26.402Z,57.75
2023-03-01T22:48:53.383Z,71.38
2023-03-01T22:51:22.353Z,58.03
2023-03-01T22:53:49.230Z,62.47
2023-03-01T22:56:21.511Z,57.55
2023-03-01T22:58:48.808Z,69.67
2023-03-01T23:01:17.881Z,67.47
2023-03-01T23:03:44.601Z,66.50
2023-03-01T23:06:11.735Z,66.18
2023-03-01T23:08:38.540Z,63.58
2023-03-01T23:11:10.041Z,66.75
2023-03-01T23:13:36.858Z,63.95
2023-03-01T23:16:06.321Z,66.22
2023-03-01T23:18:34.667Z,63.03
2023-03-01T23:21:08.086Z,66.15
2023-03-01T23:23:35.389Z,63.83
2023-03-01T23:26:02.510Z,70.95
2023-03-01T23:28:31.173Z,68.90
2023-03-01T23:31:00.332Z,67.88
2023-03-01T23:33:27.359Z,63.63
2023-03-01T23:35:54.350Z,69.35
2023-03-01T23:38:21.376Z,61.03
2023-03-01T23:40:49.428Z,63.65
2023-03-01T23:43:16.212Z,66.60
2023-03-01T23:45:43.478Z,60.78
2023-03-01T23:48:13.373Z,58.97
2023-03-01T23:50:42.025Z,63.15
2023-03-01T23:53:13.679Z,57.20
2023-03-01T23:55:45.389Z,52.13
2023-03-01T23:58:12.187Z,51.63
